• Join FlightAware (Why Join?)
  • Login
  • US Flag 
01:12AM EDT


 

Airport Tracker/Info


-or-


 

Live Flight TrackerFlight Track Log ✈ N1DH ✈ 08-Oct-2013 ✈ KLAS - KSDL

Flight Track Log - Related Links

Times and Time Zones

All times are in EDT time to prevent confusion due to time zone crossing. See the N1DH flight status page for this flight to view local times or setup timezone preferences in your user account.

Time Position Orientation Groundspeed Altitude Reporting Facility
EDT Latitude Longitude Course Direction KTS MPH feet Rate Location/Type
01:04AM 36.0428 -115.1844 203° Southwest 206 237 5,000  Level Los Angeles Center
01:04AM 35.9983 -115.2189 212° Southwest 273 314 7,700 3,600 Climbing Los Angeles Center
01:05AM 35.9803 -115.2236 192° South 275 316 8,700 3,420 Climbing Los Angeles Center
01:05AM 35.9422 -115.1686 131° Southeast 285 328 11,200 3,180 Climbing Los Angeles Center
01:06AM 35.9436 -115.1453 86° East 300 345 11,900 2,520 Climbing Los Angeles Center
01:06AM 35.9392 -115.0569 94° East 312 359 13,800 2,220 Climbing Los Angeles Center
01:07AM 35.9372 -114.9389 91° East 331 381 16,100 2,220 Climbing Los Angeles Center
01:08AM 35.9356 -114.8050 91° East 364 419 18,300 2,040 Climbing Los Angeles Center
01:09AM 35.9094 -114.6628 103° East 403 464 20,300 1,920 Climbing Los Angeles Center
01:11AM 35.8447 -114.5367 122° Southeast 423 487 22,300 1,860 Climbing Los Angeles Center
01:12AM 35.7772 -114.4086 123° Southeast 439 505 24,200 1,860 Climbing Los Angeles Center
01:13AM 35.7069 -114.2811 124° Southeast 448 516 26,200 1,980 Climbing Los Angeles Center
01:14AM 35.6258 -114.1300 123° Southeast 456 525 28,200 1,380 Climbing Los Angeles Center
01:15AM 35.5553 -114.0003 124° Southeast 459 528 29,000 360 Climbing Los Angeles Center
01:16AM 35.4775 -113.8622 125° Southeast 489 563 29,000  Level Los Angeles Center
01:17AM 35.4006 -113.7203 124° Southeast 503 579 29,000  Level Los Angeles Center
01:18AM 35.3217 -113.5789 124° Southeast 506 582 29,000  Level Los Angeles Center
01:19AM 35.2425 -113.4369 124° Southeast 512 589 29,000  Level Los Angeles Center
01:20AM 35.1642 -113.2953 124° Southeast 511 588 29,000  Level Los Angeles Center
01:21AM 35.0808 -113.1606 127° Southeast 508 585 29,000  Level Albuquerque Center
01:22AM 34.9911 -113.0331 131° Southeast 505 581 29,000  Level Albuquerque Center
01:23AM 34.8994 -112.9033 131° Southeast 510 587 29,000 -600 Level Albuquerque Center
01:24AM 34.8092 -112.7739 130° Southeast 509 586 27,900 -1,800 Descending Albuquerque Center
01:25AM 34.7189 -112.6456 131° Southeast 506 582 25,400 -2,460 Descending Albuquerque Center
01:26AM 34.6325 -112.5239 131° Southeast 488 562 23,000 -2,400 Descending Albuquerque Center
01:27AM 34.5478 -112.4061 131° Southeast 472 543 20,600 -2,340 Descending Albuquerque Center
01:28AM 34.4636 -112.2886 131° Southeast 473 544 18,300 -2,340 Descending Albuquerque Center
01:29AM 34.3786 -112.1706 131° Southeast 469 540 15,900 -2,220 Descending Albuquerque Center
01:30AM 34.3072 -112.0714 131° Southeast 416 479 13,900 -2,040 Descending Albuquerque Center
01:31AM 34.2367 -111.9750 132° Southeast 347 399 11,900 -1,500 Descending Albuquerque Center
01:32AM 34.1731 -111.9328 151° Southeast 271 312 10,900 -480 Descending Albuquerque Center
01:33AM 34.1031 -111.9267 176° South 254 292 11,000 -660 Climbing Albuquerque Center
01:34AM 34.0319 -111.9247 179° South 258 297 9,600 -1,440 Descending Albuquerque Center
01:35AM 33.9633 -111.9158 174° South 254 292 8,200 -1,440 Descending Albuquerque Center
01:36AM 33.8922 -111.9056 173° South 262 302 6,800 -1,140 Descending Albuquerque Center
01:37AM 33.8308 -111.8981 174° South 256 295 6,000 -840 Descending Albuquerque Center